Time;durP1;ratioP1;P1;durP2;ratioP2;P2;SDS_P1;SDS_P2;PMS_P1;PMS_P2;Temp;Humidity;BMP_temperature;BMP_pressure;BME280_temperature;BME280_humidity;BME280_pressure;Samples;Min_cycle;Max_cycle;Signal;HPM_P1;HPM_P2
2022/01/16 08:00:13;;;;;;;44.38;15.85;;;;;;;0.45;100.00;100856.77;715717;1174;23124;-83
2022/01/16 08:15:15;;;;;;;56.25;19.95;;;;;;;0.70;100.00;100809.37;717391;1174;114829;-84
2022/01/16 08:30:18;;;;;;;59.93;20.97;;;;;;;0.72;100.00;100817.88;716646;1174;115735;-83
2022/01/16 08:45:20;;;;;;;74.20;23.30;;;;;;;0.87;100.00;100821.63;716449;1174;114106;-84
2022/01/16 09:00:23;;;;;;;73.33;24.30;;;;;;;0.87;100.00;100774.27;714328;1174;114160;-84
2022/01/16 09:15:25;;;;;;;103.48;36.75;;;;;;;1.02;100.00;100729.74;715577;1174;114903;-78
2022/01/16 09:30:28;;;;;;;109.73;39.23;;;;;;;1.14;100.00;100720.64;714302;1174;114560;-73
2022/01/16 09:45:31;;;;;;;76.00;28.98;;;;;;;1.23;100.00;100696.13;714541;1174;114947;-73
2022/01/16 10:00:34;;;;;;;73.00;27.78;;;;;;;1.35;100.00;100663.75;714385;1174;114046;-73
2022/01/16 10:15:36;;;;;;;67.80;24.35;;;;;;;1.41;100.00;100645.39;715543;1174;115106;-72
2022/01/16 10:30:47;;;;;;;58.13;23.23;;;;;;;1.45;100.00;100627.10;715903;1174;116075;-79
2022/01/16 10:45:58;;;;;;;55.17;20.00;;;;;;;1.64;100.00;100593.47;715322;1174;115397;-79
2022/01/16 11:01:21;;;;;;;55.93;21.97;;;;;;;1.85;100.00;100559.77;715147;1174;115002;-81
2022/01/16 11:16:24;;;;;;;78.78;26.73;;;;;;;2.05;100.00;100526.92;714534;1174;115041;-78
2022/01/16 11:31:28;;;;;;;53.40;19.15;;;;;;;2.09;99.65;100503.39;714740;1174;114914;-78
2022/01/16 11:46:33;;;;;;;52.50;18.30;;;;;;;2.14;99.21;100477.30;716528;1174;114736;-84
2022/01/16 12:01:43;;;;;;;49.65;19.13;;;;;;;2.25;99.42;100463.81;717447;1174;114199;-83
2022/01/16 12:16:46;;;;;;;47.43;16.37;;;;;;;2.26;98.18;100437.84;717618;1174;115582;-81
2022/01/16 12:31:49;;;;;;;48.10;16.23;;;;;;;2.37;97.69;100429.52;715349;1174;114919;-84
2022/01/16 12:46:54;;;;;;;36.00;14.93;;;;;;;2.39;97.55;100394.03;715266;1174;114827;-79
2022/01/16 13:01:59;;;;;;;68.58;25.23;;;;;;;2.42;96.81;100369.73;716228;1174;114711;-81
2022/01/16 13:17:08;;;;;;;59.65;20.73;;;;;;;2.45;96.60;100351.44;716374;1174;115331;-84
2022/01/16 13:32:13;;;;;;;55.90;27.48;;;;;;;2.41;96.42;100327.45;715146;1174;113911;-83
2022/01/16 13:47:19;;;;;;;46.50;19.10;;;;;;;2.38;96.16;100282.78;715318;1174;116244;-83
2022/01/16 14:02:21;;;;;;;52.43;21.93;;;;;;;2.31;96.80;100257.21;714394;1174;114057;-83
2022/01/16 14:17:39;;;;;;;54.90;17.20;;;;;;;2.31;97.07;100243.45;714180;1174;115705;-84
2022/01/16 14:32:42;;;;;;;49.05;19.63;;;;;;;2.28;97.04;100238.41;714688;1174;113944;-82
2022/01/16 14:47:44;;;;;;;48.63;20.00;;;;;;;2.35;96.91;100220.78;714894;1174;115472;-84
2022/01/16 15:02:46;;;;;;;52.10;19.00;;;;;;;2.35;97.22;100213.88;714858;1174;114870;-82
2022/01/16 15:17:56;;;;;;;52.08;20.25;;;;;;;2.43;96.59;100185.80;714433;1174;115562;-83
2022/01/16 15:32:58;;;;;;;47.15;17.83;;;;;;;2.41;97.12;100120.30;714385;1174;114922;-81
2022/01/16 15:48:02;;;;;;;57.13;24.27;;;;;;;2.43;97.19;100123.66;714669;1174;115350;-80
2022/01/16 16:03:05;;;;;;;55.05;20.33;;;;;;;2.48;97.33;100102.66;715847;1174;114732;-80
2022/01/16 16:18:13;;;;;;;74.03;26.10;;;;;;;2.49;98.26;100112.10;716236;1174;114857;-80
2022/01/16 16:33:17;;;;;;;61.15;26.18;;;;;;;2.62;98.55;100122.59;715309;1174;114316;-81
2022/01/16 16:48:20;;;;;;;69.25;26.53;;;;;;;2.71;99.14;100095.34;715864;1174;114311;-84
2022/01/16 17:03:23;;;;;;;58.90;23.55;;;;;;;2.77;98.80;100094.96;714800;1174;115318;-80
2022/01/16 17:18:30;;;;;;;72.43;26.78;;;;;;;2.76;100.00;100068.23;714288;1174;114762;-82
2022/01/16 17:33:32;;;;;;;75.90;29.30;;;;;;;2.82;100.00;100070.47;714459;1174;114341;-80
2022/01/16 17:48:35;;;;;;;97.35;38.78;;;;;;;2.82;100.00;100077.39;715670;1174;114458;-82
2022/01/16 18:03:38;;;;;;;84.85;33.28;;;;;;;3.06;100.00;100058.72;714726;1174;114360;-77
2022/01/16 18:18:45;;;;;;;107.57;43.67;;;;;;;3.07;100.00;100057.80;714584;1174;114355;-81
2022/01/16 18:33:49;;;;;;;97.48;39.05;;;;;;;3.10;100.00;100040.30;715178;1174;115078;-82
2022/01/16 18:48:55;;;;;;;103.50;38.80;;;;;;;3.00;100.00;100024.46;714892;1203;23157;-80
2022/01/16 19:03:57;;;;;;;129.08;44.95;;;;;;;2.95;100.00;100010.13;714701;1203;23355;-78
2022/01/16 19:18:59;;;;;;;208.37;56.50;;;;;;;3.02;100.00;100011.41;714663;1200;23176;-78
2022/01/16 19:34:03;;;;;;;103.30;35.85;;;;;;;2.99;100.00;100006.42;714833;1204;23137;-78
2022/01/16 19:49:07;;;;;;;55.07;23.63;;;;;;;3.02;100.00;100002.81;714752;1203;24600;-78
2022/01/16 20:04:10;;;;;;;61.70;25.30;;;;;;;3.08;100.00;99989.48;714795;1203;23134;-79
2022/01/16 20:19:13;;;;;;;50.45;21.30;;;;;;;3.06;100.00;99976.63;714571;1200;23747;-77
2022/01/16 20:34:15;;;;;;;51.27;20.53;;;;;;;3.06;100.00;99976.63;714808;1205;23156;-79
2022/01/16 20:49:19;;;;;;;60.38;22.25;;;;;;;3.03;100.00;99963.83;717011;1199;23127;-80
2022/01/16 21:04:22;;;;;;;48.90;18.10;;;;;;;2.99;100.00;99929.49;714434;1200;26131;-78
2022/01/16 21:19:28;;;;;;;64.43;21.23;;;;;;;3.05;100.00;99923.12;714451;1205;23139;-78
2022/01/16 21:34:30;;;;;;;55.55;20.55;;;;;;;3.19;100.00;99892.90;714438;1200;26983;-78
2022/01/16 21:49:33;;;;;;;41.65;16.75;;;;;;;3.29;100.00;99861.09;714801;1200;24764;-79
2022/01/16 22:04:35;;;;;;;38.07;14.53;;;;;;;3.46;100.00;99836.66;714480;1200;23137;-77
2022/01/16 22:19:37;;;;;;;40.65;17.38;;;;;;;3.62;100.00;99807.13;715476;1200;23287;-79
2022/01/16 22:34:39;;;;;;;44.60;18.35;;;;;;;3.86;100.00;99788.25;714716;1200;26045;-78
2022/01/16 22:49:41;;;;;;;44.38;18.13;;;;;;;3.96;100.00;99742.57;714724;1167;116009;-78
2022/01/16 23:04:44;;;;;;;46.33;19.13;;;;;;;4.02;100.00;99710.98;714736;1174;115146;-79
2022/01/16 23:19:46;;;;;;;49.10;18.50;;;;;;;4.07;100.00;99666.54;714182;1174;114872;-79
2022/01/16 23:34:48;;;;;;;46.23;16.85;;;;;;;4.23;100.00;99642.91;714068;1174;115307;-79
2022/01/16 23:49:51;;;;;;;42.38;17.18;;;;;;;4.46;100.00;99626.49;715528;1174;114811;-80
